Página principal
METAR-TAF:

METAR-TAF

Aeroportos :

Málaga, Espanha

latitude: 36-40N, longitude: 004-29W, altura: 16 m

Observação actual do tempo

O boletim foi feito há 21 minutos, às 19:30 UTC
Vento 5 kt de es-sudeste
Temperatura 13°C
Humidade 72%
Pressão 1032 hPa
Visibilidade 10 km ou mais
Nuvens dispersasa uma altura de 2500 ft
Nuvens dispersasa uma altura de 4500 ft

METAR: LEMG 171930Z 11005KT 9999 SCT025 SCT045 13/08 Q1032 NOSIG

Hora: 20:51 (19:51 UTC)

Previsão

O boletim foi feito há 2 horas e 51 minutos, às 17:00 UTC
Previsão válida de 17 às 18 UTC a 18 às 18 UTC
Vento 8 kt de es-sudeste
Visibilidade 10 km ou mais
sem nuvens abaixo de 1500 metros e sem cumulonimbus
Temporariamente
de 18 às 00 UTC a 18 às 10 UTC
Vento 6 kt de oeste

TAF: LEMG 171700Z 1718/1818 12008KT CAVOK TX16/1814Z TN07/1807Z TEMPO 1800/1810 28006KT

Observações e previsões do tempo de mais de 4000 aeroportos (mensagens METAR e TAF).

As estações disponíveis são os pontos amarelos e vermelhos sobre o mapa.

Mova o rato sobre o mapa para ver o nome da estação.

Depois clique no ponto para visualizar as observações e previsões meteorológicas.

Para alterar o mapa : clique nos botões verdes com uma cruz preta para aumentar o zoom; no botão verde com uma pitada de zoom; ou nas setas verdes para mapas adjacentes.


METAR-TAF: